createdAt,value
2018-12-04T00:01:35.963Z,99.90
2018-12-04T00:06:37.372Z,99.90
2018-12-04T00:11:38.762Z,99.90
2018-12-04T00:16:40.146Z,99.90
2018-12-04T00:21:41.530Z,99.90
2018-12-04T00:26:43.013Z,99.90
2018-12-04T00:31:44.426Z,99.90
2018-12-04T00:36:45.793Z,99.90
2018-12-04T00:41:47.252Z,99.90
2018-12-04T00:46:48.659Z,99.90
2018-12-04T00:51:50.080Z,99.90
2018-12-04T00:56:51.449Z,99.90
2018-12-04T01:01:52.845Z,99.90
2018-12-04T01:06:54.227Z,99.90
2018-12-04T01:11:55.693Z,99.90
2018-12-04T01:16:57.140Z,99.90
2018-12-04T01:21:58.541Z,99.90
2018-12-04T01:26:59.907Z,99.90
2018-12-04T01:32:01.381Z,99.90
2018-12-04T01:37:02.976Z,99.90
2018-12-04T01:42:04.493Z,99.90
2018-12-04T01:47:05.885Z,99.90
2018-12-04T01:52:07.301Z,99.90
2018-12-04T01:57:08.678Z,99.90
2018-12-04T02:02:10.052Z,99.90
2018-12-04T02:07:11.514Z,99.90
2018-12-04T02:12:12.924Z,99.90
2018-12-04T02:17:14.344Z,99.90
2018-12-04T02:22:15.723Z,99.90
2018-12-04T02:27:17.100Z,99.90
2018-12-04T02:32:18.608Z,99.90
2018-12-04T02:37:19.999Z,99.90
2018-12-04T02:42:24.335Z,99.90
2018-12-04T02:47:25.791Z,99.90
2018-12-04T02:52:27.193Z,99.20
2018-12-04T02:57:28.673Z,97.40
2018-12-04T03:02:30.081Z,96.10
2018-12-04T03:07:31.500Z,94.30
2018-12-04T03:12:33.032Z,92.90
2018-12-04T03:17:34.529Z,93.70
2018-12-04T03:22:36.000Z,93.50
2018-12-04T03:27:37.358Z,92.20
2018-12-04T03:32:38.739Z,91.70
2018-12-04T03:37:40.126Z,91.20
2018-12-04T03:42:41.490Z,91.50
2018-12-04T03:47:42.861Z,91.50
2018-12-04T03:52:44.317Z,91.80
2018-12-04T03:57:45.717Z,92.00
2018-12-04T04:02:47.114Z,93.00
2018-12-04T04:07:48.500Z,93.10
2018-12-04T04:12:49.996Z,93.00
2018-12-04T04:17:51.378Z,95.70
2018-12-04T04:22:52.913Z,95.10
2018-12-04T04:27:54.392Z,96.30
2018-12-04T04:32:55.798Z,97.40
2018-12-04T04:37:57.217Z,99.80
2018-12-04T04:42:58.573Z,97.70
2018-12-04T04:48:00.288Z,99.80
2018-12-04T04:53:01.619Z,96.10
2018-12-04T04:58:03.096Z,94.20
2018-12-04T05:03:04.702Z,95.10
2018-12-04T05:08:06.957Z,90.80
2018-12-04T05:13:08.203Z,91.30
2018-12-04T05:18:09.395Z,90.60
2018-12-04T05:23:10.668Z,90.40
2018-12-04T05:28:11.978Z,90.50
2018-12-04T05:33:13.296Z,92.60
2018-12-04T05:38:14.525Z,92.10
2018-12-04T05:43:15.772Z,93.20
2018-12-04T05:48:17.073Z,93.10
2018-12-04T05:53:35.510Z,93.10
2018-12-04T05:58:36.725Z,92.40
2018-12-04T06:03:38.060Z,92.10
2018-12-04T06:08:39.401Z,92.40
2018-12-04T06:13:40.635Z,92.50
2018-12-04T06:18:41.965Z,93.30
2018-12-04T06:23:43.233Z,94.10
2018-12-04T06:28:44.458Z,94.40
2018-12-04T06:33:45.774Z,94.00
2018-12-04T06:38:47.076Z,93.50
2018-12-04T06:43:48.577Z,94.70
2018-12-04T06:48:49.822Z,96.50
2018-12-04T06:53:51.169Z,94.30
2018-12-04T06:58:52.469Z,96.40
2018-12-04T07:03:53.661Z,94.50
2018-12-04T07:08:54.901Z,96.80
2018-12-04T07:13:56.202Z,97.60
2018-12-04T07:18:57.453Z,97.00
2018-12-04T07:23:58.714Z,95.20
2018-12-04T07:28:59.956Z,95.80
2018-12-04T07:34:01.385Z,91.60
2018-12-04T07:39:05.449Z,87.70
2018-12-04T07:44:06.664Z,91.30
2018-12-04T07:49:07.977Z,89.50
2018-12-04T07:54:09.198Z,86.20
2018-12-04T07:59:10.558Z,88.40
2018-12-04T08:04:11.790Z,86.30
2018-12-04T08:09:13.011Z,86.30
2018-12-04T08:14:14.226Z,86.00
2018-12-04T08:19:15.458Z,88.10
2018-12-04T08:24:16.672Z,88.30
2018-12-04T08:29:18.049Z,86.50
2018-12-04T08:34:19.257Z,88.20
2018-12-04T08:39:20.495Z,84.90
2018-12-04T08:44:21.727Z,82.80
2018-12-04T08:49:23.041Z,87.10
2018-12-04T08:54:24.250Z,84.40
2018-12-04T08:59:25.487Z,85.70
2018-12-04T09:04:26.714Z,85.00
2018-12-04T09:09:27.945Z,84.20
2018-12-04T09:14:29.167Z,84.30
2018-12-04T09:19:30.411Z,82.50
2018-12-04T09:24:31.758Z,83.50
2018-12-04T09:29:33.150Z,86.30
2018-12-04T09:34:34.390Z,86.10
2018-12-04T09:39:35.623Z,83.90
2018-12-04T09:44:36.850Z,85.70
2018-12-04T09:49:38.034Z,84.30
2018-12-04T09:54:39.238Z,85.00
2018-12-04T09:59:40.459Z,82.70
2018-12-04T10:04:41.764Z,81.30
2018-12-04T10:09:43.095Z,81.00
2018-12-04T10:14:44.426Z,85.30
2018-12-04T10:19:45.653Z,84.40
2018-12-04T10:24:46.907Z,83.00
2018-12-04T10:29:48.261Z,81.40
2018-12-04T10:34:49.583Z,79.00
2018-12-04T10:39:50.793Z,78.10
2018-12-04T10:44:52.183Z,78.60
2018-12-04T10:49:53.506Z,76.60
2018-12-04T10:54:54.865Z,76.30
2018-12-04T10:59:56.078Z,77.90
2018-12-04T11:04:57.411Z,80.40
2018-12-04T11:09:58.660Z,80.80
2018-12-04T11:14:59.995Z,80.70
2018-12-04T11:20:01.584Z,82.00
2018-12-04T11:25:05.666Z,81.80
2018-12-04T11:30:08.350Z,79.60
2018-12-04T11:35:09.688Z,80.60
2018-12-04T11:40:10.934Z,79.60
2018-12-04T11:45:12.341Z,84.60
2018-12-04T11:50:13.566Z,82.80
2018-12-04T11:55:14.957Z,86.70
2018-12-04T12:00:18.503Z,82.80
2018-12-04T12:05:19.803Z,79.30
2018-12-04T12:10:21.099Z,82.00
2018-12-04T12:15:22.659Z,83.40
2018-12-04T12:20:23.847Z,79.50
2018-12-04T12:25:25.052Z,77.40
2018-12-04T12:30:26.282Z,80.60
2018-12-04T12:35:27.518Z,82.00
2018-12-04T12:40:28.755Z,79.90
2018-12-04T12:45:30.131Z,80.30
2018-12-04T12:50:31.350Z,81.10
2018-12-04T12:55:32.685Z,80.50
2018-12-04T13:00:33.885Z,81.20
2018-12-04T13:05:35.126Z,85.70
2018-12-04T13:10:36.324Z,82.00
2018-12-04T13:15:37.636Z,81.10
2018-12-04T13:20:38.962Z,79.50
2018-12-04T13:25:40.851Z,78.30
2018-12-04T13:30:42.231Z,81.60
2018-12-04T13:35:43.437Z,78.80
2018-12-04T13:40:44.658Z,77.80
2018-12-04T13:45:46.033Z,78.40
2018-12-04T13:50:47.386Z,77.60
2018-12-04T13:55:48.717Z,77.10
2018-12-04T14:00:50.067Z,78.40
2018-12-04T14:05:52.633Z,78.70
2018-12-04T14:10:54.083Z,77.50
2018-12-04T14:15:56.871Z,79.50
2018-12-04T14:20:58.341Z,79.20
2018-12-04T14:25:59.691Z,78.70
2018-12-04T14:31:01.020Z,78.80
2018-12-04T14:36:02.569Z,78.80
2018-12-04T14:41:03.912Z,78.60
2018-12-04T14:46:05.430Z,76.10
2018-12-04T14:51:06.778Z,76.90
2018-12-04T14:56:08.133Z,79.70
2018-12-04T15:01:09.592Z,79.10
2018-12-04T15:06:12.027Z,79.60
2018-12-04T15:11:13.391Z,81.00
2018-12-04T15:16:14.776Z,81.30
2018-12-04T15:21:16.146Z,82.60
2018-12-04T15:26:17.474Z,82.70
2018-12-04T15:31:18.789Z,84.20
2018-12-04T15:36:20.180Z,85.60
2018-12-04T15:41:21.513Z,87.20
2018-12-04T15:46:22.949Z,87.30
2018-12-04T15:51:24.335Z,88.10
2018-12-04T15:56:25.684Z,88.30
2018-12-04T16:01:26.900Z,89.10
2018-12-04T16:06:28.477Z,90.80
2018-12-04T16:11:29.720Z,89.30
2018-12-04T16:16:31.228Z,89.60
2018-12-04T16:21:32.606Z,87.80
2018-12-04T16:26:33.849Z,88.70
2018-12-04T16:31:35.196Z,88.90
2018-12-04T16:36:36.453Z,88.60
2018-12-04T16:41:37.782Z,88.60
2018-12-04T16:46:39.402Z,89.40
2018-12-04T16:51:40.757Z,89.80
2018-12-04T16:56:42.143Z,92.10
2018-12-04T17:01:43.535Z,93.80
2018-12-04T17:06:44.771Z,95.20
2018-12-04T17:11:46.094Z,94.60
2018-12-04T17:16:47.355Z,94.30
2018-12-04T17:21:48.606Z,97.10
2018-12-04T17:26:50.086Z,98.40
2018-12-04T17:31:51.382Z,98.30
2018-12-04T17:36:52.609Z,98.20
2018-12-04T17:41:53.891Z,98.60
2018-12-04T17:46:55.170Z,99.30
2018-12-04T17:51:56.407Z,98.80
2018-12-04T17:56:57.686Z,98.70
2018-12-04T18:01:59.003Z,98.70
2018-12-04T18:07:00.565Z,98.80
2018-12-04T18:12:01.808Z,98.90
2018-12-04T18:17:03.082Z,99.40
2018-12-04T18:22:04.606Z,99.70
2018-12-04T18:27:05.873Z,98.80
2018-12-04T18:32:07.131Z,99.90
2018-12-04T18:37:08.467Z,99.90
2018-12-04T18:42:09.694Z,99.90
2018-12-04T18:47:11.166Z,99.90
2018-12-04T18:52:12.513Z,99.90
2018-12-04T18:57:13.955Z,99.90
2018-12-04T19:02:15.381Z,99.90
2018-12-04T19:07:16.642Z,99.90
2018-12-04T19:12:17.909Z,99.90
2018-12-04T19:17:19.180Z,99.90
2018-12-04T19:22:20.408Z,99.90
2018-12-04T19:27:21.633Z,99.90
2018-12-04T19:32:23.079Z,99.90
2018-12-04T19:37:24.415Z,99.90
2018-12-04T19:42:25.784Z,99.90
2018-12-04T19:47:27.167Z,99.90
2018-12-04T19:52:28.416Z,99.90
2018-12-04T19:57:29.787Z,99.90
2018-12-04T20:02:31.065Z,99.90
2018-12-04T20:07:32.344Z,99.90
2018-12-04T20:12:33.581Z,99.90
2018-12-04T20:17:34.960Z,99.90
2018-12-04T20:22:36.396Z,99.90
2018-12-04T20:27:37.695Z,99.90
2018-12-04T20:32:39.044Z,99.90
2018-12-04T20:37:40.330Z,99.90
2018-12-04T20:42:41.525Z,99.90
2018-12-04T20:47:42.952Z,99.90
